Track Баргамон Кирилл

Time Latitude Longitude Accuracy (66% radius in meters) Altitude (meters) Speed (km/hour) Bearing (degrees) Battery (%) GPS flag
06:41:17 57.203936 60.118198 0 0 0 0 1 delete
06:41:16 57.203941 60.118187 0 0 0 0 1 delete
06:41:12 57.204030 60.118039 0 0 0 0 1 delete
06:41:07 57.204152 60.117817 0 0 0 0 1 delete
06:41:04 57.204252 60.117696 0 0 0 0 1 delete
06:41:00 57.204394 60.117547 0 0 0 0 1 delete
06:40:55 57.204609 60.117407 0 0 0 0 1 delete
06:40:50 57.204831 60.117468 0 0 0 0 1 delete
06:40:46 57.204996 60.117500 0 0 0 0 1 delete
06:40:43 57.205072 60.117543 0 0 0 0 1 delete
06:40:41 57.205118 60.117572 0 0 0 0 1 delete
06:40:36 57.205151 60.117572 0 0 0 0 1 delete
06:40:35 57.205150 60.117526 0 0 0 0 1 delete
06:40:30 57.205152 60.117316 0 0 0 0 1 delete
06:40:26 57.205125 60.117168 0 0 0 0 1 delete
06:40:22 57.205003 60.117114 0 0 0 0 1 delete
06:40:21 57.204975 60.117100 0 0 0 0 1 delete
06:40:17 57.204872 60.117036 0 0 0 0 1 delete
06:40:12 57.204738 60.116932 0 0 0 0 1 delete
06:40:11 57.204736 60.116909 0 0 0 0 1 delete
06:40:05 57.204675 60.116756 0 0 0 0 1 delete
06:40:01 57.204644 60.116665 0 0 0 0 1 delete
06:39:56 57.204626 60.116537 0 0 0 0 1 delete
06:39:54 57.204637 60.116490 0 0 0 0 1 delete
06:39:50 57.204644 60.116366 0 0 0 0 1 delete
06:39:43 57.204618 60.116090 0 0 0 0 1 delete
06:39:38 57.204642 60.115946 0 0 0 0 1 delete
06:39:34 57.204674 60.115770 0 0 0 0 1 delete
06:39:32 57.204686 60.115696 0 0 0 0 1 delete
06:39:28 57.204681 60.115555 0 0 0 0 1 delete
06:39:24 57.204682 60.115381 0 0 0 0 1 delete
06:39:20 57.204667 60.115182 0 0 0 0 1 delete
06:39:16 57.204666 60.114995 0 0 0 0 1 delete
06:39:11 57.204643 60.114757 0 0 0 0 1 delete
06:39:07 57.204623 60.114559 0 0 0 0 1 delete
06:39:05 57.204627 60.114468 0 0 0 0 1 delete
06:39:02 57.204677 60.114349 0 0 0 0 1 delete
06:38:58 57.204813 60.114419 0 0 0 0 1 delete
06:38:55 57.204862 60.114442 0 0 0 0 1 delete
06:38:51 57.204931 60.114451 0 0 0 0 1 delete
06:38:49 57.205002 60.114416 0 0 0 0 1 delete
06:38:45 57.205111 60.114466 0 0 0 0 1 delete
06:38:41 57.205173 60.114834 0 0 0 0 1 delete
06:38:37 57.205219 60.115108 0 0 0 0 1 delete
06:38:33 57.205272 60.115224 0 0 0 0 1 delete
06:38:32 57.205297 60.115205 0 0 0 0 1 delete
06:38:28 57.205403 60.115112 0 0 0 0 1 delete
06:38:23 57.205503 60.114949 0 0 0 0 1 delete
06:38:19 57.205584 60.114799 0 0 0 0 1 delete
06:38:14 57.205683 60.114581 0 0 0 0 1 delete